createdAt,value
2022-12-15T00:01:10.189Z,100015.80
2022-12-15T00:03:59.843Z,100017.52
2022-12-15T00:06:49.729Z,100028.66
2022-12-15T00:09:39.373Z,100028.66
2022-12-15T00:12:28.921Z,100024.38
2022-12-15T00:15:18.683Z,100030.37
2022-12-15T00:18:08.195Z,100038.11
2022-12-15T00:20:57.925Z,100042.39
2022-12-15T00:23:47.474Z,100043.27
2022-12-15T00:26:37.331Z,100049.28
2022-12-15T00:29:27.218Z,100044.13
2022-12-15T00:32:17.321Z,100047.57
2022-12-15T00:35:07.031Z,100051.00
2022-12-15T00:37:56.993Z,100051.85
2022-12-15T00:40:29.085Z,100050.14
2022-12-15T00:43:01.036Z,100046.71
2022-12-15T00:45:50.583Z,100051.01
2022-12-15T00:48:22.740Z,100047.59
2022-12-15T00:50:54.753Z,100057.02
2022-12-15T00:53:44.461Z,100048.43
2022-12-15T00:56:33.948Z,100055.30
2022-12-15T00:59:23.781Z,100057.05
2022-12-15T01:02:13.451Z,100056.16
2022-12-15T01:05:03.134Z,100055.31
2022-12-15T01:07:52.922Z,100060.45
2022-12-15T01:10:42.701Z,100058.73
2022-12-15T01:13:34.510Z,100063.03
2022-12-15T01:16:28.791Z,100073.34
2022-12-15T01:19:18.694Z,100077.60
2022-12-15T01:21:50.724Z,100079.31
2022-12-15T01:24:22.725Z,100079.33
2022-12-15T01:26:54.696Z,100078.45
2022-12-15T01:29:26.949Z,100074.14
2022-12-15T01:31:59.362Z,100083.58
2022-12-15T01:34:31.803Z,100085.25
2022-12-15T01:37:04.099Z,100086.09
2022-12-15T01:39:53.802Z,100081.77
2022-12-15T01:42:25.749Z,100080.02
2022-12-15T01:45:00.604Z,100083.41
2022-12-15T01:47:33.002Z,100085.06
2022-12-15T01:50:05.319Z,100095.27
2022-12-15T01:52:37.301Z,100099.55
2022-12-15T01:55:09.571Z,100103.78
2022-12-15T01:57:42.997Z,100102.94
2022-12-15T02:00:16.551Z,100110.63
2022-12-15T02:02:49.162Z,100108.94
2022-12-15T02:05:22.712Z,100113.19
2022-12-15T02:07:54.860Z,100108.06
2022-12-15T02:10:29.805Z,100108.03
2022-12-15T02:13:10.459Z,100103.73
2022-12-15T02:15:57.554Z,100104.56
2022-12-15T02:18:50.257Z,100114.83
2022-12-15T02:21:36.731Z,100112.31
2022-12-15T02:24:28.045Z,100117.50
2022-12-15T02:27:11.818Z,100122.64
2022-12-15T02:30:05.792Z,100132.86
2022-12-15T02:32:59.938Z,100125.14
2022-12-15T02:35:46.468Z,100126.80
2022-12-15T02:38:30.564Z,100138.73
2022-12-15T02:41:02.807Z,100138.78
2022-12-15T02:43:38.168Z,100145.76
2022-12-15T02:46:27.754Z,100149.14
2022-12-15T02:49:14.807Z,100148.34
2022-12-15T02:51:55.807Z,100139.80
2022-12-15T02:54:46.911Z,100135.61
2022-12-15T02:57:28.011Z,100136.52
2022-12-15T03:00:02.925Z,100149.37
2022-12-15T03:02:38.439Z,100139.97
2022-12-15T03:05:11.562Z,100141.72
2022-12-15T03:07:43.565Z,100139.20
2022-12-15T03:10:16.063Z,100147.80
2022-12-15T03:12:50.433Z,100141.82
2022-12-15T03:15:21.981Z,100140.95
2022-12-15T03:17:53.827Z,100138.45
2022-12-15T03:20:25.753Z,100137.58
2022-12-15T03:22:57.619Z,100143.58
2022-12-15T03:25:30.467Z,100146.12
2022-12-15T03:28:03.004Z,100146.11
2022-12-15T03:30:35.104Z,100148.67
2022-12-15T03:33:07.592Z,100148.69
2022-12-15T03:35:39.689Z,100152.12
2022-12-15T03:38:11.806Z,100147.02
2022-12-15T03:40:43.865Z,100148.70
2022-12-15T03:43:16.021Z,100153.02
2022-12-15T03:45:48.508Z,100149.59
2022-12-15T03:48:20.863Z,100151.28
2022-12-15T03:50:53.343Z,100153.02
2022-12-15T03:53:25.601Z,100154.73
2022-12-15T03:55:57.928Z,100160.75
2022-12-15T03:58:30.450Z,100166.75
2022-12-15T04:01:14.126Z,100163.34
2022-12-15T04:03:46.583Z,100161.62
2022-12-15T04:06:18.650Z,100171.05
2022-12-15T04:08:51.163Z,100166.78
2022-12-15T04:11:23.714Z,100168.49
2022-12-15T04:13:56.063Z,100165.93
2022-12-15T04:16:28.687Z,100169.37
2022-12-15T04:19:18.303Z,100172.83
2022-12-15T04:21:50.584Z,100171.94
2022-12-15T04:24:40.911Z,100185.69
2022-12-15T04:27:30.944Z,100183.11
2022-12-15T04:30:20.769Z,100183.98
2022-12-15T04:33:10.886Z,100190.00
2022-12-15T04:36:00.782Z,100194.28
2022-12-15T04:38:51.006Z,100194.28
2022-12-15T04:41:43.134Z,100190.83
2022-12-15T04:44:33.299Z,100193.42
2022-12-15T04:47:24.639Z,100191.70
2022-12-15T04:50:14.792Z,100201.11
2022-12-15T04:53:05.366Z,100205.39
2022-12-15T04:55:56.119Z,100208.81
2022-12-15T04:58:46.079Z,100209.66
2022-12-15T05:01:35.810Z,100204.53
2022-12-15T05:04:25.808Z,100211.36
2022-12-15T05:07:16.663Z,100220.81
2022-12-15T05:10:12.715Z,100219.07
2022-12-15T05:12:58.829Z,100224.20
2022-12-15T05:15:48.784Z,100225.89
2022-12-15T05:18:39.715Z,100229.31
2022-12-15T05:21:30.373Z,100231.02
2022-12-15T05:24:20.403Z,100230.98
2022-12-15T05:27:10.410Z,100230.09
2022-12-15T05:30:00.863Z,100229.20
2022-12-15T05:32:34.431Z,100236.91
2022-12-15T05:35:07.951Z,100232.60
2022-12-15T05:37:41.191Z,100237.78
2022-12-15T05:40:16.655Z,100236.97
2022-12-15T05:42:50.184Z,100229.22
2022-12-15T05:45:22.545Z,100233.52
2022-12-15T05:47:55.882Z,100235.22
2022-12-15T05:50:29.076Z,100235.25
2022-12-15T05:53:01.780Z,100248.94
2022-12-15T05:55:34.195Z,100251.50
2022-12-15T05:58:07.133Z,100244.66
2022-12-15T06:00:40.267Z,100248.08
2022-12-15T06:03:13.044Z,100250.63
2022-12-15T06:05:46.015Z,100253.22
2022-12-15T06:08:18.026Z,100259.23
2022-12-15T06:10:57.257Z,100256.61
2022-12-15T06:13:32.639Z,100259.12
2022-12-15T06:16:08.196Z,100260.79
2022-12-15T06:18:44.655Z,100259.89
2022-12-15T06:21:21.819Z,100258.11
2022-12-15T06:23:54.316Z,100262.33
2022-12-15T06:26:30.610Z,100271.75
2022-12-15T06:29:04.903Z,100274.28
2022-12-15T06:31:39.853Z,100268.29
2022-12-15T06:34:17.722Z,100269.98
2022-12-15T06:36:51.200Z,100281.98
2022-12-15T06:39:23.887Z,100285.45
2022-12-15T06:41:55.931Z,100284.59
2022-12-15T06:44:28.108Z,100298.32
2022-12-15T06:47:00.847Z,100297.48
2022-12-15T06:49:33.484Z,100294.07
2022-12-15T06:52:05.749Z,100294.96
2022-12-15T06:54:38.775Z,100296.64
2022-12-15T06:57:11.044Z,100310.38
2022-12-15T06:59:43.580Z,100318.09
2022-12-15T07:02:23.816Z,100317.23
2022-12-15T07:04:54.927Z,100312.93
2022-12-15T07:07:28.044Z,100319.83
2022-12-15T07:10:00.748Z,100322.39
2022-12-15T07:12:33.578Z,100323.25
2022-12-15T07:15:08.465Z,100324.14
2022-12-15T07:17:41.733Z,100328.46
2022-12-15T07:20:14.087Z,100329.31
2022-12-15T07:22:47.631Z,100327.65
2022-12-15T07:25:21.125Z,100330.28
2022-12-15T07:27:53.641Z,100328.56
2022-12-15T07:30:26.239Z,100330.30
2022-12-15T07:33:05.292Z,100332.88
2022-12-15T07:35:37.753Z,100329.47
2022-12-15T07:38:10.556Z,100342.36
2022-12-15T07:40:43.476Z,100335.53
2022-12-15T07:43:16.628Z,100329.52
2022-12-15T07:45:53.625Z,100335.55
2022-12-15T07:48:25.908Z,100333.00
2022-12-15T07:51:05.203Z,100327.86
2022-12-15T07:53:32.629Z,100333.90
2022-12-15T07:56:08.864Z,100326.17
2022-12-15T07:58:40.619Z,100337.34
2022-12-15T08:01:16.648Z,100334.77
2022-12-15T08:03:50.452Z,100347.64
2022-12-15T08:06:22.910Z,100344.20
2022-12-15T08:08:57.839Z,100345.92
2022-12-15T08:11:31.402Z,100348.49
2022-12-15T08:14:05.636Z,100352.76
2022-12-15T08:16:37.914Z,100352.76
2022-12-15T08:19:12.617Z,100347.59
2022-12-15T08:21:46.271Z,100337.30
2022-12-15T08:24:19.748Z,100337.31
2022-12-15T08:26:53.092Z,100340.73
2022-12-15T08:29:50.695Z,100339.88
2022-12-15T08:32:01.079Z,100329.60
2022-12-15T08:34:34.063Z,100335.57
2022-12-15T08:37:06.149Z,100338.16
2022-12-15T08:39:39.058Z,100341.57
2022-12-15T08:42:11.280Z,100345.02
2022-12-15T08:44:43.480Z,100352.72
2022-12-15T08:47:15.702Z,100352.72
2022-12-15T08:49:48.969Z,100347.58
2022-12-15T08:52:22.312Z,100343.31
2022-12-15T08:54:54.625Z,100343.29
2022-12-15T08:57:26.615Z,100344.12
2022-12-15T08:59:59.356Z,100346.70
2022-12-15T09:02:33.989Z,100356.11
2022-12-15T09:05:06.544Z,100350.12
2022-12-15T09:07:38.889Z,100357.83
2022-12-15T09:10:11.738Z,100351.84
2022-12-15T09:12:44.643Z,100351.00
2022-12-15T09:15:16.744Z,100351.89
2022-12-15T09:17:49.183Z,100359.63
2022-12-15T09:20:21.712Z,100346.84
2022-12-15T09:22:54.830Z,100328.83
2022-12-15T09:25:26.925Z,100341.65
2022-12-15T09:27:58.967Z,100331.36
2022-12-15T09:30:31.294Z,100330.50
2022-12-15T09:33:04.183Z,100328.77
2022-12-15T09:35:36.803Z,100314.17
2022-12-15T09:38:09.398Z,100314.17
2022-12-15T09:40:42.160Z,100320.23
2022-12-15T09:43:33.952Z,100310.78
2022-12-15T09:46:06.509Z,100309.05
2022-12-15T09:48:42.453Z,100293.59
2022-12-15T09:51:18.945Z,100288.45
2022-12-15T09:53:55.812Z,100297.89
2022-12-15T09:56:40.234Z,100295.28
2022-12-15T09:59:21.336Z,100277.29
2022-12-15T10:02:16.217Z,100267.02
2022-12-15T10:04:51.629Z,100273.88
2022-12-15T10:07:35.173Z,100271.30
2022-12-15T10:10:19.480Z,100258.42
2022-12-15T10:13:01.775Z,100255.00
2022-12-15T10:15:31.581Z,100246.42
2022-12-15T10:18:24.957Z,100241.28
2022-12-15T10:21:00.211Z,100231.81
2022-12-15T10:23:36.099Z,100230.13
2022-12-15T10:26:24.310Z,100240.41
2022-12-15T10:29:15.446Z,100230.16
2022-12-15T10:31:53.322Z,100237.86
2022-12-15T10:34:32.380Z,100238.75
2022-12-15T10:37:07.101Z,100245.62
2022-12-15T10:39:42.367Z,100237.05
2022-12-15T10:42:22.974Z,100238.77
2022-12-15T10:44:58.340Z,100243.94
2022-12-15T10:47:33.381Z,100248.24
2022-12-15T10:50:24.717Z,100244.83
2022-12-15T10:52:55.612Z,100249.14
2022-12-15T10:55:50.055Z,100256.02
2022-12-15T10:58:23.312Z,100252.55
2022-12-15T11:01:11.858Z,100256.85
2022-12-15T11:03:46.320Z,100249.11
2022-12-15T11:06:25.752Z,100253.36
2022-12-15T11:09:00.544Z,100248.19
2022-12-15T11:11:54.579Z,100256.78
2022-12-15T11:14:32.374Z,100267.91
2022-12-15T11:17:07.859Z,100274.77
2022-12-15T11:20:02.375Z,100279.05
2022-12-15T11:22:54.897Z,100279.89
2022-12-15T11:25:42.074Z,100286.77
2022-12-15T11:28:35.788Z,100279.02
2022-12-15T11:31:27.373Z,100282.45
2022-12-15T11:34:00.665Z,100276.42
2022-12-15T11:37:00.810Z,100271.30
2022-12-15T11:39:50.656Z,100271.28
2022-12-15T11:42:35.311Z,100258.44
2022-12-15T11:45:10.542Z,100255.91
2022-12-15T11:47:51.656Z,100249.89
2022-12-15T11:50:46.168Z,100235.28
2022-12-15T11:53:31.948Z,100245.57
2022-12-15T11:56:23.586Z,100248.99
2022-12-15T11:59:00.898Z,100242.20
2022-12-15T12:01:47.386Z,100241.33
2022-12-15T12:04:25.705Z,100243.00
2022-12-15T12:07:10.700Z,100234.39
2022-12-15T12:10:07.853Z,100225.79
2022-12-15T12:12:50.587Z,100242.06
2022-12-15T12:15:31.946Z,100231.81
2022-12-15T12:18:10.039Z,100229.20
2022-12-15T12:20:44.938Z,100218.88
2022-12-15T12:23:21.273Z,100223.15
2022-12-15T12:26:15.986Z,100219.70
2022-12-15T12:29:06.193Z,100206.85
2022-12-15T12:31:50.743Z,100203.41
2022-12-15T12:34:40.943Z,100196.55
2022-12-15T12:37:34.204Z,100203.36
2022-12-15T12:40:33.515Z,100198.22
2022-12-15T12:43:11.820Z,100197.35
2022-12-15T12:45:55.394Z,100205.94
2022-12-15T12:48:30.706Z,100191.36
2022-12-15T12:51:27.853Z,100193.04
2022-12-15T12:54:02.241Z,100191.27
2022-12-15T12:56:50.437Z,100193.84
2022-12-15T12:59:36.373Z,100184.40
2022-12-15T13:02:27.748Z,100174.16
2022-12-15T13:05:04.896Z,100166.39
2022-12-15T13:07:41.070Z,100169.79
2022-12-15T13:10:22.847Z,100157.77
2022-12-15T13:13:00.848Z,100153.50
2022-12-15T13:15:42.815Z,100154.39
2022-12-15T13:18:20.835Z,100150.07
2022-12-15T13:20:58.097Z,100143.24
2022-12-15T13:23:37.054Z,100133.81
2022-12-15T13:26:12.731Z,100135.52
2022-12-15T13:28:48.603Z,100132.08
2022-12-15T13:31:25.749Z,100132.93
2022-12-15T13:34:03.129Z,100120.08
2022-12-15T13:36:50.742Z,100115.00
2022-12-15T13:39:22.396Z,100116.66
2022-12-15T13:42:32.157Z,100111.51
2022-12-15T13:44:34.715Z,100104.64
2022-12-15T13:47:19.418Z,100110.64
2022-12-15T13:50:18.614Z,100103.80
2022-12-15T13:55:31.217Z,100090.98
2022-12-15T13:58:12.047Z,100102.08
2022-12-15T14:00:53.495Z,100095.19
2022-12-15T14:03:26.825Z,100091.73
2022-12-15T14:06:00.639Z,100092.59
2022-12-15T14:08:33.694Z,100093.40
2022-12-15T14:11:22.225Z,100087.38
2022-12-15T14:13:40.487Z,100092.48
2022-12-15T14:16:18.493Z,100095.94
2022-12-15T14:19:11.471Z,100083.94
2022-12-15T14:21:52.328Z,100083.93
2022-12-15T14:24:39.607Z,100086.56
2022-12-15T14:27:06.192Z,100083.10
2022-12-15T14:29:37.743Z,100081.42
2022-12-15T14:32:11.532Z,100070.30
2022-12-15T14:34:50.536Z,100071.93
2022-12-15T14:37:22.151Z,100071.09
2022-12-15T14:39:56.307Z,100062.48
2022-12-15T14:42:31.123Z,100066.73
2022-12-15T14:45:03.482Z,100064.22
2022-12-15T14:47:36.951Z,100067.63
2022-12-15T14:50:12.881Z,100066.75
2022-12-15T14:52:46.010Z,100065.03
2022-12-15T14:55:33.199Z,100058.17
2022-12-15T14:58:08.236Z,100059.93
2022-12-15T15:00:53.107Z,100062.44
2022-12-15T15:03:41.751Z,100054.73
2022-12-15T15:06:18.108Z,100061.59
2022-12-15T15:08:54.950Z,100057.31
2022-12-15T15:11:30.068Z,100053.09
2022-12-15T15:14:08.168Z,100065.88
2022-12-15T15:16:40.834Z,100064.23
2022-12-15T15:19:18.648Z,100068.53
2022-12-15T15:21:51.099Z,100069.34
2022-12-15T15:24:26.369Z,100071.93
2022-12-15T15:27:18.240Z,100061.63
2022-12-15T15:29:51.153Z,100063.38
2022-12-15T15:32:25.281Z,100065.06
2022-12-15T15:34:57.670Z,100056.46
2022-12-15T15:37:29.680Z,100058.16
2022-12-15T15:40:02.281Z,100053.86
2022-12-15T15:42:35.379Z,100064.94
2022-12-15T15:45:12.346Z,100058.95
2022-12-15T15:47:47.743Z,100053.81
2022-12-15T15:50:23.435Z,100051.23
2022-12-15T15:52:56.137Z,100038.42
2022-12-15T15:55:37.815Z,100023.88
2022-12-15T15:58:08.459Z,100018.73
2022-12-15T16:00:41.206Z,100024.80
2022-12-15T16:03:13.796Z,100020.52
2022-12-15T16:05:46.254Z,100008.51
2022-12-15T16:08:22.030Z,99998.32
2022-12-15T16:10:55.146Z,99992.23
2022-12-15T16:13:27.317Z,99982.81
2022-12-15T16:15:59.430Z,99982.88
2022-12-15T16:18:33.471Z,99976.02
2022-12-15T16:21:07.440Z,99965.81
2022-12-15T16:23:39.197Z,99965.76
2022-12-15T16:26:17.095Z,99972.66
2022-12-15T16:28:49.657Z,99960.70
2022-12-15T16:31:41.425Z,99956.33
2022-12-15T16:34:10.269Z,99960.59
2022-12-15T16:36:43.804Z,99950.31
2022-12-15T16:39:27.879Z,99940.91
2022-12-15T16:42:01.046Z,99923.84
2022-12-15T16:44:33.405Z,99932.42
2022-12-15T16:47:05.827Z,99924.70
2022-12-15T16:49:40.336Z,99918.73
2022-12-15T16:52:15.314Z,99918.75
2022-12-15T16:54:50.771Z,99911.05
2022-12-15T16:57:23.469Z,99911.91
2022-12-15T16:59:56.147Z,99916.19
2022-12-15T17:02:31.936Z,99921.30
2022-12-15T17:05:04.083Z,99905.89
2022-12-15T17:07:35.650Z,99910.17
2022-12-15T17:10:08.603Z,99913.66
2022-12-15T17:12:41.288Z,99904.20
2022-12-15T17:15:19.683Z,99900.76
2022-12-15T17:17:52.619Z,99900.76
2022-12-15T17:20:31.123Z,99897.41
2022-12-15T17:23:11.262Z,99893.95
2022-12-15T17:26:18.546Z,99875.98
2022-12-15T17:28:24.460Z,99892.23
2022-12-15T17:30:56.748Z,99870.84
2022-12-15T17:33:33.628Z,99855.47
2022-12-15T17:36:14.327Z,99871.73
2022-12-15T17:38:46.779Z,99853.77
2022-12-15T17:41:42.742Z,99849.57
2022-12-15T17:44:24.208Z,99844.36
2022-12-15T17:46:30.198Z,99822.13
2022-12-15T17:49:02.695Z,99816.14
2022-12-15T17:51:35.953Z,99810.16
2022-12-15T17:54:09.790Z,99793.09
2022-12-15T17:56:43.675Z,99795.66
2022-12-15T17:59:18.134Z,99798.21
2022-12-15T18:01:51.916Z,99784.52
2022-12-15T18:04:24.561Z,99764.87
2022-12-15T18:07:01.674Z,99747.75
2022-12-15T18:09:31.337Z,99752.04
2022-12-15T18:12:03.790Z,99743.47
2022-12-15T18:14:39.321Z,99740.05
2022-12-15T18:17:12.268Z,99746.89
2022-12-15T18:19:44.317Z,99741.77
2022-12-15T18:22:22.384Z,99728.08
2022-12-15T18:24:55.935Z,99722.98
2022-12-15T18:27:30.317Z,99728.94
2022-12-15T18:30:02.793Z,99716.12
2022-12-15T18:32:37.993Z,99712.69
2022-12-15T18:35:16.957Z,99715.27
2022-12-15T18:37:50.458Z,99705.01
2022-12-15T18:40:26.292Z,99699.87
2022-12-15T18:42:59.204Z,99700.73
2022-12-15T18:45:31.363Z,99693.00
2022-12-15T18:48:05.065Z,99707.55
2022-12-15T18:50:37.185Z,99703.29
2022-12-15T18:53:12.476Z,99695.56
2022-12-15T18:55:45.679Z,99704.12
2022-12-15T18:58:29.437Z,99689.55
2022-12-15T19:01:03.205Z,99674.13
2022-12-15T19:03:37.998Z,99703.23
2022-12-15T19:06:23.991Z,99686.95
2022-12-15T19:08:53.454Z,99673.23
2022-12-15T19:11:32.497Z,99680.08
2022-12-15T19:14:07.811Z,99667.20
2022-12-15T19:16:58.233Z,99672.38
2022-12-15T19:19:47.213Z,99662.92
2022-12-15T19:22:28.127Z,99662.06
2022-12-15T19:25:02.138Z,99661.19
2022-12-15T19:27:35.338Z,99656.05
2022-12-15T19:30:09.892Z,99656.88
2022-12-15T19:32:43.387Z,99647.42
2022-12-15T19:35:15.725Z,99632.00
2022-12-15T19:37:50.123Z,99645.72
2022-12-15T19:40:25.301Z,99637.96
2022-12-15T19:42:58.345Z,99629.38
2022-12-15T19:45:33.144Z,99621.66
2022-12-15T19:48:05.409Z,99628.48
2022-12-15T19:50:38.689Z,99628.48
2022-12-15T19:53:28.627Z,99617.32
2022-12-15T19:56:05.002Z,99613.88
2022-12-15T19:58:38.878Z,99605.29
2022-12-15T20:01:14.914Z,99594.98
2022-12-15T20:03:50.124Z,99609.55
2022-12-15T20:06:27.405Z,99588.97
2022-12-15T20:09:00.479Z,99598.38
2022-12-15T20:11:34.662Z,99594.10
2022-12-15T20:14:15.631Z,99588.95
2022-12-15T20:16:49.671Z,99582.06
2022-12-15T20:19:21.961Z,99580.35
2022-12-15T20:21:54.067Z,99580.31
2022-12-15T20:24:27.740Z,99568.30
2022-12-15T20:27:00.576Z,99581.11
2022-12-15T20:29:33.392Z,99570.80
2022-12-15T20:32:08.244Z,99577.62
2022-12-15T20:34:40.440Z,99578.52
2022-12-15T20:37:21.204Z,99569.08
2022-12-15T20:39:57.355Z,99568.20
2022-12-15T20:42:28.120Z,99577.61
2022-12-15T20:45:00.281Z,99570.78
2022-12-15T20:47:33.537Z,99564.68
2022-12-15T20:50:08.642Z,99569.03
2022-12-15T20:52:40.721Z,99550.19
2022-12-15T20:55:15.530Z,99548.42
2022-12-15T20:57:47.656Z,99551.87
2022-12-15T21:00:20.158Z,99553.56
2022-12-15T21:02:55.004Z,99538.95
2022-12-15T21:05:26.820Z,99537.16
2022-12-15T21:07:58.808Z,99532.02
2022-12-15T21:10:30.683Z,99532.91
2022-12-15T21:13:02.728Z,99524.36
2022-12-15T21:15:34.700Z,99531.09
2022-12-15T21:18:40.610Z,99525.99
2022-12-15T21:20:45.244Z,99516.56
2022-12-15T21:23:29.378Z,99517.44
2022-12-15T21:26:04.131Z,99519.94
2022-12-15T21:28:37.032Z,99519.92
2022-12-15T21:31:09.333Z,99505.34
2022-12-15T21:33:41.435Z,99502.80
2022-12-15T21:36:19.286Z,99502.70
2022-12-15T21:38:53.345Z,99508.71
2022-12-15T21:41:27.222Z,99501.00
2022-12-15T21:43:59.775Z,99489.80
2022-12-15T21:46:32.041Z,99492.38
2022-12-15T21:49:17.616Z,99502.57
2022-12-15T21:51:58.084Z,99497.45
2022-12-15T21:54:35.928Z,99489.72
2022-12-15T21:57:10.124Z,99495.73
2022-12-15T21:59:43.046Z,99483.74
2022-12-15T22:02:26.857Z,99476.83
2022-12-15T22:04:59.033Z,99484.45
2022-12-15T22:07:32.319Z,99477.56
2022-12-15T22:10:04.766Z,99482.45
2022-12-15T22:12:37.984Z,99482.63
2022-12-15T22:15:24.230Z,99483.53
2022-12-15T22:17:56.758Z,99474.10
2022-12-15T22:20:29.265Z,99484.28
2022-12-15T22:23:01.419Z,99480.12
2022-12-15T22:25:33.356Z,99480.13
2022-12-15T22:28:05.320Z,99480.91
2022-12-15T22:30:37.841Z,99471.41
2022-12-15T22:33:17.573Z,99473.16
2022-12-15T22:35:46.991Z,99470.61
2022-12-15T22:38:20.536Z,99480.03
2022-12-15T22:40:55.469Z,99472.27
2022-12-15T22:43:42.501Z,99467.90
2022-12-15T22:46:16.188Z,99472.17
2022-12-15T22:48:49.256Z,99485.90
2022-12-15T22:51:21.734Z,99473.06
2022-12-15T22:53:53.368Z,99479.65
2022-12-15T22:56:32.341Z,99482.34
2022-12-15T22:59:07.100Z,99478.13
2022-12-15T23:01:39.378Z,99475.55
2022-12-15T23:04:11.632Z,99474.70
2022-12-15T23:06:45.338Z,99472.05
2022-12-15T23:09:17.574Z,99467.77
2022-12-15T23:11:49.525Z,99472.03
2022-12-15T23:14:23.232Z,99459.15
2022-12-15T23:16:55.372Z,99462.58
2022-12-15T23:19:27.434Z,99458.23
2022-12-15T23:21:59.780Z,99458.19
2022-12-15T23:24:31.761Z,99462.41
2022-12-15T23:27:03.630Z,99458.19
2022-12-15T23:29:35.667Z,99455.59
2022-12-15T23:32:07.891Z,99450.44
2022-12-15T23:34:40.460Z,99434.98
2022-12-15T23:37:12.336Z,99440.08
2022-12-15T23:39:44.483Z,99442.56
2022-12-15T23:42:16.651Z,99441.75
2022-12-15T23:44:48.606Z,99441.80
2022-12-15T23:47:20.780Z,99444.31
2022-12-15T23:49:53.758Z,99444.29
2022-12-15T23:52:28.971Z,99454.62
2022-12-15T23:55:02.113Z,99444.16
2022-12-15T23:57:35.762Z,99437.34
